Time;durP1;ratioP1;P1;durP2;ratioP2;P2;SDS_P1;SDS_P2;PMS_P1;PMS_P2;Temp;Humidity;BMP_temperature;BMP_pressure;BME280_temperature;BME280_humidity;BME280_pressure;Samples;Min_cycle;Max_cycle;Signal;HPM_P1;HPM_P2
2022/03/15 00:00:30;;;;;;;21.43;14.67;;;3.10;99.90;;;;;;4976997;28;20059;-81
2022/03/15 00:02:59;;;;;;;22.63;14.43;;;3.00;99.90;;;;;;4971823;28;20038;-81
2022/03/15 00:05:28;;;;;;;21.73;12.85;;;3.00;99.90;;;;;;4951191;28;20078;-80
2022/03/15 00:07:53;;;;;;;16.00;12.15;;;3.00;99.90;;;;;;4975032;28;20049;-80
2022/03/15 00:10:20;;;;;;;19.10;12.55;;;3.00;99.90;;;;;;4995708;28;20061;-81
2022/03/15 00:12:47;;;;;;;19.13;12.53;;;3.10;99.90;;;;;;4992481;28;20050;-80
2022/03/15 00:15:13;;;;;;;20.27;13.13;;;3.00;99.90;;;;;;5000199;28;20485;-81
2022/03/15 00:17:41;;;;;;;19.83;13.87;;;3.10;99.90;;;;;;4974406;28;20104;-81
2022/03/15 00:20:09;;;;;;;19.53;13.47;;;3.10;99.90;;;;;;4993038;28;20119;-81
2022/03/15 00:22:36;;;;;;;22.23;14.53;;;3.10;99.90;;;;;;4953363;28;20082;-81
2022/03/15 00:25:04;;;;;;;28.13;16.90;;;3.10;99.90;;;;;;4969046;28;20050;-80
2022/03/15 00:27:30;;;;;;;19.80;14.90;;;3.10;99.90;;;;;;4981527;28;20045;-81
2022/03/15 00:29:56;;;;;;;22.47;15.07;;;3.10;99.90;;;;;;4981438;28;20050;-79
2022/03/15 00:32:23;;;;;;;21.40;14.70;;;3.10;99.90;;;;;;4969232;28;20046;-79
2022/03/15 00:34:48;;;;;;;20.17;14.40;;;3.10;99.90;;;;;;4973518;28;20045;-79
2022/03/15 00:37:15;;;;;;;21.77;14.70;;;3.10;99.90;;;;;;4984137;28;20045;-79
2022/03/15 00:39:42;;;;;;;26.17;17.35;;;3.10;99.90;;;;;;4983428;28;20050;-79
2022/03/15 00:42:08;;;;;;;24.20;17.63;;;3.10;99.90;;;;;;4976977;28;20711;-79
2022/03/15 00:44:34;;;;;;;23.20;17.63;;;3.20;99.90;;;;;;4988078;28;20050;-79
2022/03/15 00:47:01;;;;;;;21.47;16.90;;;3.20;99.90;;;;;;4964662;28;20033;-80
2022/03/15 00:49:27;;;;;;;24.43;17.70;;;3.20;99.90;;;;;;4981834;28;20045;-80
2022/03/15 00:51:53;;;;;;;21.73;18.37;;;3.30;99.90;;;;;;4994400;28;20052;-79
2022/03/15 00:54:20;;;;;;;21.93;16.80;;;3.30;99.90;;;;;;4984741;28;20161;-80
2022/03/15 00:56:46;;;;;;;23.40;16.73;;;3.30;99.90;;;;;;4997544;28;20057;-80
2022/03/15 00:59:15;;;;;;;24.93;18.13;;;3.30;99.90;;;;;;4965362;28;20038;-80
2022/03/15 01:01:41;;;;;;;22.57;16.90;;;3.40;99.90;;;;;;4994978;28;20116;-80
2022/03/15 01:04:07;;;;;;;26.83;18.97;;;3.40;99.90;;;;;;4968028;28;20042;-80
2022/03/15 01:06:34;;;;;;;26.03;19.03;;;3.40;99.90;;;;;;4988191;28;20054;-80
2022/03/15 01:09:02;;;;;;;26.77;20.07;;;3.30;99.90;;;;;;4988962;28;20042;-81
2022/03/15 01:11:28;;;;;;;23.67;21.13;;;3.40;99.90;;;;;;4973524;28;20064;-80
2022/03/15 01:13:53;;;;;;;22.67;18.13;;;3.40;99.90;;;;;;4975509;28;20489;-79
2022/03/15 01:16:19;;;;;;;23.90;17.88;;;3.30;99.90;;;;;;4965085;28;20048;-80
2022/03/15 01:18:45;;;;;;;23.30;16.80;;;3.20;99.90;;;;;;4972622;28;20058;-79
2022/03/15 01:21:14;;;;;;;25.10;18.08;;;3.20;99.90;;;;;;4973350;28;20046;-80
2022/03/15 01:23:41;;;;;;;25.43;21.20;;;3.10;99.90;;;;;;4993248;28;20050;-80
2022/03/15 01:26:07;;;;;;;25.17;18.37;;;3.10;99.90;;;;;;4991227;28;20053;-80
2022/03/15 01:28:33;;;;;;;25.13;17.87;;;3.00;99.90;;;;;;4956007;28;20050;-80
2022/03/15 01:30:58;;;;;;;21.83;17.73;;;3.10;99.90;;;;;;5003924;28;20046;-80
2022/03/15 01:33:24;;;;;;;28.20;19.30;;;3.10;99.90;;;;;;4997966;28;20065;-80
2022/03/15 01:35:51;;;;;;;22.33;18.23;;;3.10;99.90;;;;;;4979146;28;20056;-80
2022/03/15 01:38:16;;;;;;;25.30;18.90;;;3.00;99.90;;;;;;4971249;28;20133;-80
2022/03/15 01:40:42;;;;;;;27.05;19.10;;;3.10;99.90;;;;;;4987922;28;20123;-80
2022/03/15 01:43:08;;;;;;;28.17;20.70;;;3.00;99.90;;;;;;4985217;28;20648;-79
2022/03/15 01:45:39;;;;;;;25.60;19.83;;;3.00;99.90;;;;;;4977049;28;20049;-80
2022/03/15 01:48:07;;;;;;;25.33;19.93;;;3.00;99.90;;;;;;4975549;28;20508;-80
2022/03/15 01:50:34;;;;;;;35.73;25.33;;;3.00;99.90;;;;;;4981055;28;20042;-79
2022/03/15 01:53:00;;;;;;;31.00;24.43;;;2.90;99.90;;;;;;4998523;28;20108;-79
2022/03/15 01:55:29;;;;;;;28.57;22.23;;;2.90;99.90;;;;;;4969074;28;20081;-80
2022/03/15 01:57:55;;;;;;;25.33;20.30;;;3.00;99.90;;;;;;4994182;28;20128;-79
2022/03/15 02:00:24;;;;;;;28.43;21.70;;;3.00;99.90;;;;;;4978492;28;20054;-80
2022/03/15 02:02:50;;;;;;;26.57;22.17;;;3.10;99.90;;;;;;4992627;28;20046;-80
2022/03/15 02:05:16;;;;;;;34.20;24.77;;;3.20;99.90;;;;;;4972530;28;20511;-80
2022/03/15 02:07:42;;;;;;;31.27;23.00;;;3.10;99.90;;;;;;4997600;28;20053;-79
2022/03/15 02:10:08;;;;;;;29.30;22.40;;;3.20;99.90;;;;;;4997813;28;20092;-80
2022/03/15 02:12:38;;;;;;;29.73;22.37;;;3.20;99.90;;;;;;4985704;28;20562;-80
2022/03/15 02:15:06;;;;;;;30.38;22.45;;;3.20;99.90;;;;;;4979503;28;20114;-80
2022/03/15 02:17:32;;;;;;;27.40;22.63;;;3.30;99.90;;;;;;4976075;28;20762;-80
2022/03/15 02:19:58;;;;;;;33.03;22.70;;;3.20;99.90;;;;;;4952335;28;20054;-80
2022/03/15 02:22:27;;;;;;;31.27;23.67;;;3.30;99.90;;;;;;4964689;28;20069;-79
2022/03/15 02:24:53;;;;;;;31.37;24.53;;;3.30;99.90;;;;;;4979137;28;20132;-80
2022/03/15 02:27:23;;;;;;;29.73;21.80;;;3.30;99.90;;;;;;4975388;28;20125;-79
2022/03/15 02:29:50;;;;;;;28.02;21.63;;;3.30;99.90;;;;;;4965355;28;20405;-79
2022/03/15 02:32:16;;;;;;;30.70;22.13;;;3.40;99.90;;;;;;4946749;28;20352;-79
2022/03/15 02:34:42;;;;;;;29.97;21.80;;;3.30;99.90;;;;;;4974321;28;20054;-80
2022/03/15 02:37:08;;;;;;;27.33;22.43;;;3.30;99.90;;;;;;4960673;28;20052;-80
2022/03/15 02:39:34;;;;;;;28.13;22.93;;;3.40;99.90;;;;;;4977220;28;20049;-79
2022/03/15 02:42:00;;;;;;;29.97;21.33;;;3.30;99.90;;;;;;4992598;28;20068;-80
2022/03/15 02:44:29;;;;;;;29.50;21.63;;;3.40;99.90;;;;;;4969297;28;20042;-81
2022/03/15 02:46:55;;;;;;;26.57;22.90;;;3.40;99.90;;;;;;4986143;28;20053;-79
2022/03/15 02:49:21;;;;;;;29.03;21.27;;;3.40;99.90;;;;;;4958236;28;20058;-80
2022/03/15 02:51:47;;;;;;;28.73;23.47;;;3.30;99.90;;;;;;4958972;28;20046;-80
2022/03/15 02:54:13;;;;;;;29.83;19.93;;;3.30;99.90;;;;;;4961601;28;20613;-80
2022/03/15 02:56:44;;;;;;;25.83;21.43;;;3.40;99.90;;;;;;4994885;28;20134;-80
2022/03/15 02:59:14;;;;;;;28.53;20.00;;;3.30;99.90;;;;;;4963160;28;20056;-80
2022/03/15 03:01:45;;;;;;;29.58;24.02;;;3.30;99.90;;;;;;4956943;28;20049;-79
2022/03/15 03:04:11;;;;;;;;;;;3.30;99.90;;;;;;4992197;28;20056;-80
2022/03/15 03:06:44;;;;;;;39.10;26.27;;;3.30;99.90;;;;;;4990526;28;20382;-80
2022/03/15 03:09:15;;;;;;;29.47;24.30;;;3.30;99.90;;;;;;4980714;28;20042;-79
2022/03/15 03:11:40;;;;;;;30.88;23.20;;;3.30;99.90;;;;;;4986514;28;20038;-78
2022/03/15 03:14:06;;;;;;;33.10;26.20;;;3.30;99.90;;;;;;4979473;28;20053;-80
2022/03/15 03:16:34;;;;;;;26.87;23.97;;;3.30;99.90;;;;;;4993007;28;20629;-79
2022/03/15 03:19:00;;;;;;;33.33;25.63;;;3.30;99.90;;;;;;4978942;28;20508;-80
2022/03/15 03:21:28;;;;;;;34.93;30.33;;;3.30;99.90;;;;;;4968016;28;20054;-81
2022/03/15 03:23:56;;;;;;;34.20;26.67;;;3.40;99.90;;;;;;4977747;28;20404;-80
2022/03/15 03:26:24;;;;;;;36.33;25.83;;;3.40;99.90;;;;;;4969821;28;20042;-80
2022/03/15 03:28:53;;;;;;;33.73;26.57;;;3.40;99.90;;;;;;4979587;28;20049;-80
2022/03/15 03:31:19;;;;;;;31.63;24.10;;;3.40;99.90;;;;;;4976730;28;20767;-79
2022/03/15 03:33:44;;;;;;;32.37;26.60;;;3.30;99.90;;;;;;4972155;28;20073;-80
2022/03/15 03:36:11;;;;;;;27.00;21.23;;;3.30;99.90;;;;;;4980674;28;20164;-80
2022/03/15 03:38:37;;;;;;;52.53;37.03;;;3.20;99.90;;;;;;4976354;28;20045;-80
2022/03/15 03:41:04;;;;;;;32.70;24.17;;;3.20;99.90;;;;;;4957932;28;20661;-79
2022/03/15 03:43:31;;;;;;;29.67;23.33;;;3.20;99.90;;;;;;4994755;28;20046;-79
2022/03/15 03:45:57;;;;;;;28.13;22.00;;;3.20;99.90;;;;;;4980957;28;20465;-80
2022/03/15 03:48:24;;;;;;;29.37;23.23;;;3.30;99.90;;;;;;4960580;28;20627;-79
2022/03/15 03:50:50;;;;;;;31.87;25.63;;;3.30;99.90;;;;;;4982855;28;20121;-79
2022/03/15 03:53:17;;;;;;;38.90;27.30;;;3.30;99.90;;;;;;4977657;28;20560;-79
2022/03/15 03:55:44;;;;;;;41.40;28.83;;;3.40;99.90;;;;;;4978410;28;20050;-79
2022/03/15 03:58:11;;;;;;;36.20;29.30;;;3.40;99.90;;;;;;5001684;28;20069;-79
2022/03/15 04:00:37;;;;;;;37.10;27.90;;;3.50;99.90;;;;;;4989705;28;20050;-79
2022/03/15 04:03:03;;;;;;;37.57;29.10;;;3.50;99.90;;;;;;4960674;28;20050;-80
2022/03/15 04:05:30;;;;;;;44.17;31.90;;;3.50;99.90;;;;;;4994859;28;20042;-80
2022/03/15 04:07:59;;;;;;;37.77;26.97;;;3.50;99.90;;;;;;4969185;28;20120;-79
2022/03/15 04:10:31;;;;;;;37.50;29.77;;;3.50;99.90;;;;;;4971751;28;20034;-79
2022/03/15 04:12:57;;;;;;;42.07;30.30;;;3.60;99.90;;;;;;4989303;28;20508;-79
2022/03/15 04:15:24;;;;;;;40.07;29.80;;;3.60;99.90;;;;;;4997820;28;20558;-79
2022/03/15 04:17:50;;;;;;;35.28;27.73;;;3.60;99.90;;;;;;4967459;28;20069;-79
2022/03/15 04:20:16;;;;;;;41.53;31.80;;;3.70;99.90;;;;;;4994482;28;20153;-79
2022/03/15 04:22:43;;;;;;;47.73;35.10;;;3.70;99.90;;;;;;4975309;28;20537;-79
2022/03/15 04:25:09;;;;;;;46.57;33.67;;;3.70;99.90;;;;;;4966535;28;20046;-79
2022/03/15 04:27:35;;;;;;;47.28;35.10;;;3.80;99.90;;;;;;4996653;28;20128;-79
2022/03/15 04:30:02;;;;;;;53.23;35.70;;;3.80;99.90;;;;;;4988306;28;20105;-79
2022/03/15 04:32:28;;;;;;;48.70;37.07;;;3.90;99.90;;;;;;4994278;28;20077;-79
2022/03/15 04:34:54;;;;;;;54.17;39.77;;;3.90;99.90;;;;;;4978281;28;20066;-79
2022/03/15 04:37:21;;;;;;;44.63;34.53;;;4.00;99.90;;;;;;4961861;28;20050;-79
2022/03/15 04:39:47;;;;;;;42.00;30.63;;;3.90;99.90;;;;;;4986058;28;20055;-80
2022/03/15 04:42:13;;;;;;;40.35;29.83;;;4.00;99.90;;;;;;4940619;28;20046;-79
2022/03/15 04:44:39;;;;;;;43.30;32.33;;;3.90;99.90;;;;;;4947911;28;20575;-79
2022/03/15 04:47:05;;;;;;;40.93;33.27;;;4.00;99.90;;;;;;4999087;28;20045;-79
2022/03/15 04:49:31;;;;;;;47.10;36.07;;;4.00;99.90;;;;;;4973552;28;20053;-78
2022/03/15 04:51:57;;;;;;;54.43;38.93;;;4.00;99.90;;;;;;4974606;28;20104;-79
2022/03/15 04:54:23;;;;;;;57.80;42.37;;;4.00;99.90;;;;;;4991350;28;20050;-79
2022/03/15 04:56:49;;;;;;;67.00;47.87;;;4.10;99.90;;;;;;4974437;28;20413;-79
2022/03/15 04:59:15;;;;;;;68.05;46.78;;;4.20;99.90;;;;;;4965691;28;20048;-79
2022/03/15 05:01:41;;;;;;;77.27;49.67;;;4.30;99.90;;;;;;4965797;28;20041;-79
2022/03/15 05:04:07;;;;;;;68.53;47.00;;;4.40;99.90;;;;;;4975335;28;20078;-79
2022/03/15 05:06:33;;;;;;;64.78;45.65;;;4.50;99.90;;;;;;5003930;28;20052;-79
2022/03/15 05:08:59;;;;;;;72.57;49.28;;;4.50;99.90;;;;;;4971312;28;20212;-79
2022/03/15 05:11:27;;;;;;;81.85;51.30;;;4.50;99.90;;;;;;4936176;28;20752;-78
2022/03/15 05:13:53;;;;;;;72.70;50.13;;;4.50;99.90;;;;;;4999178;28;20060;-78
2022/03/15 05:16:21;;;;;;;76.07;50.60;;;4.60;99.90;;;;;;4954245;28;20049;-79
2022/03/15 05:18:56;;;;;;;76.93;48.53;;;4.60;99.90;;;;;;5003014;28;20057;-78
2022/03/15 05:21:25;;;;;;;75.82;48.60;;;4.70;99.90;;;;;;4987396;28;20050;-79
2022/03/15 05:23:53;;;;;;;72.37;45.97;;;4.70;99.90;;;;;;4986949;28;20064;-78
2022/03/15 05:26:20;;;;;;;67.85;46.72;;;4.70;99.90;;;;;;4951887;28;20050;-80
2022/03/15 05:28:49;;;;;;;70.78;46.95;;;4.70;99.90;;;;;;4967459;28;20050;-79
2022/03/15 05:31:20;;;;;;;68.72;47.35;;;4.70;99.90;;;;;;4933014;28;20051;-79
2022/03/15 05:33:47;;;;;;;;;;;4.80;99.90;;;;;;4952406;28;20054;-78
2022/03/15 05:36:13;;;;;;;68.28;48.63;;;4.80;99.90;;;;;;4967400;28;20380;-77
2022/03/15 05:38:40;;;;;;;75.22;48.85;;;4.80;99.90;;;;;;4983927;28;20058;-77
2022/03/15 05:41:08;;;;;;;76.63;50.00;;;4.80;99.90;;;;;;4967197;28;20054;-78
2022/03/15 05:43:37;;;;;;;76.65;48.28;;;4.80;99.90;;;;;;4967495;28;20055;-78
2022/03/15 05:46:04;;;;;;;79.07;51.77;;;4.80;99.90;;;;;;4965078;28;20145;-78
2022/03/15 05:48:30;;;;;;;82.65;50.83;;;4.90;99.90;;;;;;4940496;28;20325;-79
2022/03/15 05:50:56;;;;;;;76.40;50.38;;;4.90;99.90;;;;;;4961816;28;20072;-78
2022/03/15 05:53:22;;;;;;;82.53;49.63;;;4.90;99.90;;;;;;4964372;28;20073;-78
2022/03/15 05:55:47;;;;;;;78.68;49.05;;;4.90;99.90;;;;;;4982452;28;20077;-78
2022/03/15 05:58:14;;;;;;;81.20;50.10;;;5.00;99.90;;;;;;4958577;28;20141;-78
2022/03/15 06:00:42;;;;;;;77.20;50.25;;;5.00;99.90;;;;;;4954935;28;20568;-77
2022/03/15 06:03:11;;;;;;;76.38;49.53;;;5.00;99.90;;;;;;4971644;28;20050;-78
2022/03/15 06:05:40;;;;;;;76.20;49.38;;;5.10;99.90;;;;;;4972726;28;20442;-78
2022/03/15 06:08:06;;;;;;;74.07;50.10;;;5.10;99.90;;;;;;4954492;28;20489;-78
2022/03/15 06:10:32;;;;;;;73.63;48.25;;;5.10;99.90;;;;;;4972226;28;20108;-78
2022/03/15 06:12:58;;;;;;;75.20;48.20;;;5.10;99.90;;;;;;4971349;28;20057;-78
2022/03/15 06:15:24;;;;;;;74.88;48.72;;;5.20;99.90;;;;;;4958235;28;20169;-78
2022/03/15 06:18:00;;;;;;;71.55;46.92;;;5.20;99.90;;;;;;4969314;28;20655;-78
2022/03/15 06:20:27;;;;;;;79.88;48.60;;;5.20;99.90;;;;;;4957522;28;20486;-79
2022/03/15 06:22:53;;;;;;;76.20;50.55;;;5.20;99.90;;;;;;4952917;28;20070;-79
2022/03/15 06:25:20;;;;;;;73.82;49.38;;;5.30;99.90;;;;;;4976724;28;20565;-79
2022/03/15 06:27:46;;;;;;;75.28;48.45;;;5.30;99.90;;;;;;4943202;28;20061;-79
2022/03/15 06:30:15;;;;;;;73.45;47.33;;;5.30;99.90;;;;;;4967760;28;20046;-79
2022/03/15 06:32:41;;;;;;;65.80;46.20;;;5.30;99.90;;;;;;4988262;28;20063;-79
2022/03/15 06:35:09;;;;;;;70.05;45.22;;;5.40;99.90;;;;;;4989089;28;20462;-79
2022/03/15 06:37:46;;;;;;;63.55;43.47;;;5.40;99.90;;;;;;4976486;28;20050;-79
2022/03/15 06:40:14;;;;;;;63.88;44.42;;;5.40;99.90;;;;;;4977839;28;20053;-79
2022/03/15 06:42:40;;;;;;;66.57;42.97;;;5.40;99.90;;;;;;4990104;28;20900;-80
2022/03/15 06:45:08;;;;;;;69.28;47.65;;;5.40;99.90;;;;;;4959824;28;20483;-80
2022/03/15 06:47:35;;;;;;;62.63;43.03;;;5.40;99.90;;;;;;4992111;28;20076;-80
2022/03/15 06:50:02;;;;;;;68.80;45.58;;;5.50;99.90;;;;;;4975631;28;20523;-80
2022/03/15 06:52:28;;;;;;;66.22;44.88;;;5.50;99.90;;;;;;4997031;28;20072;-80
2022/03/15 06:54:57;;;;;;;70.10;45.88;;;5.50;99.90;;;;;;4962103;28;20708;-80
2022/03/15 06:57:23;;;;;;;65.72;45.72;;;5.60;99.90;;;;;;4989803;28;20050;-80
2022/03/15 06:59:48;;;;;;;64.82;44.22;;;5.60;99.90;;;;;;4959357;28;20369;-81
2022/03/15 07:02:14;;;;;;;57.15;42.47;;;5.60;99.90;;;;;;4984628;28;20054;-80
2022/03/15 07:04:41;;;;;;;59.35;42.17;;;5.60;99.90;;;;;;4938807;28;20050;-80
2022/03/15 07:07:07;;;;;;;62.53;43.33;;;5.70;99.90;;;;;;4969038;28;20653;-80
2022/03/15 07:09:33;;;;;;;61.38;42.33;;;5.70;99.90;;;;;;4988592;28;20057;-80
2022/03/15 07:11:59;;;;;;;60.17;43.85;;;5.70;99.90;;;;;;5001704;28;20054;-80
2022/03/15 07:14:25;;;;;;;62.47;45.13;;;5.70;99.90;;;;;;4972509;28;20084;-79
2022/03/15 07:16:51;;;;;;;63.80;43.83;;;5.80;99.90;;;;;;4986505;28;20423;-79
2022/03/15 07:19:17;;;;;;;62.95;44.45;;;5.80;99.90;;;;;;4961364;28;20058;-78
2022/03/15 07:21:43;;;;;;;64.10;44.75;;;5.80;99.90;;;;;;4999242;28;20056;-79
2022/03/15 07:24:08;;;;;;;54.38;41.63;;;5.80;99.90;;;;;;4987320;28;20252;-79
2022/03/15 07:26:34;;;;;;;58.38;44.47;;;5.80;99.90;;;;;;4983416;28;20100;-79
2022/03/15 07:29:02;;;;;;;65.10;44.50;;;5.90;99.90;;;;;;4975114;28;20050;-79
2022/03/15 07:31:29;;;;;;;57.15;42.17;;;5.90;99.90;;;;;;4979796;28;20078;-79
2022/03/15 07:33:54;;;;;;;54.65;42.10;;;6.00;99.90;;;;;;4983823;28;20543;-79
2022/03/15 07:36:21;;;;;;;58.05;41.38;;;6.00;99.90;;;;;;4976847;28;20042;-80
2022/03/15 07:38:48;;;;;;;53.67;42.30;;;6.00;99.90;;;;;;5004219;28;20092;-80
2022/03/15 07:41:16;;;;;;;57.30;42.33;;;6.10;99.90;;;;;;4987680;28;20120;-79
2022/03/15 07:43:43;;;;;;;52.33;39.78;;;6.10;99.90;;;;;;4975254;28;20081;-79
2022/03/15 07:46:09;;;;;;;60.88;43.25;;;6.10;99.90;;;;;;4993890;28;20391;-80
2022/03/15 07:48:34;;;;;;;55.47;39.25;;;6.20;99.90;;;;;;4983813;28;20050;-79
2022/03/15 07:51:03;;;;;;;62.47;43.20;;;6.20;99.90;;;;;;4989242;28;20129;-79
2022/03/15 07:53:29;;;;;;;58.80;42.55;;;6.20;99.90;;;;;;4963235;28;20186;-79
2022/03/15 07:55:58;;;;;;;56.00;43.20;;;6.20;99.90;;;;;;4971292;28;20668;-80
2022/03/15 07:58:24;;;;;;;55.65;42.03;;;6.30;99.90;;;;;;4985599;28;20038;-79
2022/03/15 08:00:54;;;;;;;53.58;41.83;;;6.30;99.90;;;;;;4961852;28;20054;-78
2022/03/15 08:03:22;;;;;;;59.53;43.10;;;6.30;99.90;;;;;;4982432;28;20064;-78
2022/03/15 08:05:48;;;;;;;50.72;41.40;;;6.30;99.90;;;;;;4996942;28;20046;-78
2022/03/15 08:08:15;;;;;;;54.70;41.83;;;6.40;99.90;;;;;;4988581;28;20046;-78
2022/03/15 08:10:41;;;;;;;53.85;41.38;;;6.40;99.90;;;;;;4968659;28;20053;-79
2022/03/15 08:13:07;;;;;;;57.95;44.25;;;6.40;99.90;;;;;;4993582;28;20041;-79
2022/03/15 08:15:34;;;;;;;55.92;42.58;;;6.50;99.90;;;;;;5000236;28;20053;-79
2022/03/15 08:18:01;;;;;;;58.72;44.30;;;6.50;99.90;;;;;;4985183;28;20082;-79
2022/03/15 08:20:33;;;;;;;54.15;42.80;;;6.50;99.90;;;;;;4995583;28;20512;-80
2022/03/15 08:23:02;;;;;;;53.38;42.28;;;6.50;99.90;;;;;;4987686;28;20042;-78
2022/03/15 08:25:28;;;;;;;54.45;41.85;;;6.50;99.90;;;;;;4984384;28;20050;-79
2022/03/15 08:27:55;;;;;;;56.17;43.55;;;6.60;99.90;;;;;;4974449;28;20058;-78
2022/03/15 08:30:23;;;;;;;55.78;43.08;;;6.60;99.90;;;;;;4969420;28;20054;-78
2022/03/15 08:32:49;;;;;;;57.85;44.17;;;6.70;99.90;;;;;;4970785;28;20107;-78
2022/03/15 08:35:15;;;;;;;57.47;43.25;;;6.70;99.90;;;;;;4978861;28;20480;-78
2022/03/15 08:37:42;;;;;;;53.78;41.70;;;6.70;99.90;;;;;;4967904;28;20105;-78
2022/03/15 08:40:09;;;;;;;59.60;45.78;;;6.70;99.90;;;;;;4967384;28;20046;-77
2022/03/15 08:42:35;;;;;;;55.35;42.70;;;6.70;99.90;;;;;;4952180;28;20049;-78
2022/03/15 08:45:01;;;;;;;61.20;45.67;;;6.70;99.90;;;;;;4981087;28;20050;-78
2022/03/15 08:47:30;;;;;;;57.13;43.08;;;6.70;99.90;;;;;;4978534;28;20496;-79
2022/03/15 08:49:56;;;;;;;58.35;43.17;;;6.80;99.90;;;;;;4948801;28;20071;-78
2022/03/15 08:52:22;;;;;;;53.75;43.25;;;6.80;99.90;;;;;;4975848;28;20066;-78
2022/03/15 08:54:47;;;;;;;54.35;44.63;;;6.80;99.90;;;;;;4988473;28;20601;-78
2022/03/15 08:57:14;;;;;;;54.10;43.15;;;6.90;99.90;;;;;;4940476;28;20093;-78
2022/03/15 08:59:40;;;;;;;57.42;45.00;;;6.90;99.90;;;;;;4954730;28;20034;-79
2022/03/15 09:02:09;;;;;;;55.88;43.45;;;6.90;99.90;;;;;;4966077;28;20084;-78
2022/03/15 09:04:34;;;;;;;55.92;43.58;;;6.90;99.90;;;;;;4967453;28;20397;-78
2022/03/15 09:07:00;;;;;;;56.88;44.47;;;7.00;99.90;;;;;;4967380;28;20268;-78
2022/03/15 09:09:27;;;;;;;55.05;42.63;;;7.00;99.90;;;;;;4977958;28;20050;-78
2022/03/15 09:11:53;;;;;;;57.47;43.15;;;7.00;99.90;;;;;;4963940;28;20134;-78
2022/03/15 09:14:19;;;;;;;55.75;43.45;;;7.00;99.90;;;;;;4993499;28;20125;-79
2022/03/15 09:16:45;;;;;;;53.78;42.63;;;7.10;99.90;;;;;;4972397;28;20053;-78
2022/03/15 09:19:11;;;;;;;53.30;45.03;;;7.10;99.90;;;;;;4987345;28;20511;-78
2022/03/15 09:21:37;;;;;;;52.78;44.38;;;7.10;99.90;;;;;;4979179;28;20136;-78
2022/03/15 09:24:03;;;;;;;51.58;41.55;;;7.20;99.90;;;;;;4986690;28;20046;-77
2022/03/15 09:26:29;;;;;;;51.42;41.22;;;7.30;99.90;;;;;;4973881;28;20131;-78
2022/03/15 09:28:55;;;;;;;55.83;42.58;;;7.30;99.90;;;;;;4978057;28;20097;-80
2022/03/15 09:31:21;;;;;;;57.83;42.70;;;7.30;99.90;;;;;;4997792;28;20058;-78
2022/03/15 09:33:47;;;;;;;53.22;43.13;;;7.30;99.90;;;;;;4995311;28;20057;-78
2022/03/15 09:36:15;;;;;;;47.22;40.60;;;7.40;99.90;;;;;;4987516;28;20050;-77
2022/03/15 09:38:41;;;;;;;47.03;40.17;;;7.40;99.90;;;;;;4981297;28;20045;-78
2022/03/15 09:41:07;;;;;;;48.97;41.65;;;7.40;99.90;;;;;;4991650;28;20067;-78
2022/03/15 09:43:39;;;;;;;50.58;41.53;;;7.50;99.90;;;;;;4975151;28;20050;-78
2022/03/15 09:46:06;;;;;;;52.88;42.28;;;7.50;99.90;;;;;;4991240;28;20643;-78
2022/03/15 09:48:32;;;;;;;46.53;40.28;;;7.60;99.90;;;;;;5006772;28;20435;-78
2022/03/15 09:50:59;;;;;;;45.17;38.95;;;7.60;99.90;;;;;;4990630;28;20038;-78
2022/03/15 09:53:26;;;;;;;46.72;39.97;;;7.60;99.90;;;;;;4973397;28;20052;-77
2022/03/15 09:55:52;;;;;;;53.55;41.92;;;7.70;99.90;;;;;;4977548;28;20046;-77
2022/03/15 09:58:20;;;;;;;45.20;38.25;;;7.70;99.90;;;;;;4990776;28;20046;-77
2022/03/15 10:00:52;;;;;;;49.20;41.95;;;7.70;99.90;;;;;;4985972;28;20061;-78
2022/03/15 10:03:18;;;;;;;49.10;40.22;;;7.80;99.90;;;;;;4992557;28;20521;-78
2022/03/15 10:05:45;;;;;;;46.55;41.30;;;7.90;99.90;;;;;;4997474;28;20050;-77
2022/03/15 10:08:13;;;;;;;47.40;39.70;;;7.90;99.90;;;;;;4982313;28;20042;-78
2022/03/15 10:10:39;;;;;;;44.28;37.03;;;8.00;99.90;;;;;;4988045;28;20607;-78
2022/03/15 10:13:05;;;;;;;42.45;37.20;;;8.10;99.90;;;;;;4988249;28;20493;-78
2022/03/15 10:15:31;;;;;;;42.40;36.42;;;8.10;99.90;;;;;;4978062;28;20100;-77
2022/03/15 10:18:04;;;;;;;43.03;37.00;;;8.20;99.90;;;;;;4992399;28;20057;-77
2022/03/15 10:20:39;;;;;;;46.28;36.97;;;8.30;99.90;;;;;;4977609;28;20062;-77
2022/03/15 10:23:04;;;;;;;44.15;37.88;;;8.40;99.90;;;;;;4992272;28;20038;-77
2022/03/15 10:25:32;;;;;;;41.28;35.20;;;8.40;99.90;;;;;;4978132;28;20378;-77
2022/03/15 10:28:00;;;;;;;39.55;35.08;;;8.50;99.90;;;;;;4975729;28;20046;-77
2022/03/15 10:30:28;;;;;;;38.95;34.63;;;8.50;99.90;;;;;;4978735;28;20054;-77
2022/03/15 10:32:59;;;;;;;41.63;34.60;;;8.50;99.90;;;;;;4962521;28;20703;-78
2022/03/15 10:35:31;;;;;;;41.75;32.05;;;8.60;99.90;;;;;;4965652;28;20430;-78
2022/03/15 10:37:58;;;;;;;43.20;32.92;;;8.60;99.90;;;;;;4993682;28;20646;-79
2022/03/15 10:40:34;;;;;;;37.92;32.03;;;8.70;99.90;;;;;;4985586;28;20652;-79
2022/03/15 10:43:12;;;;;;;40.15;31.58;;;8.80;99.90;;;;;;4995985;28;20933;-79
2022/03/15 10:45:43;;;;;;;41.05;31.60;;;8.80;99.90;;;;;;4987178;28;20073;-79
2022/03/15 10:48:21;;;;;;;43.08;31.30;;;8.90;99.90;;;;;;4995168;28;20045;-79
2022/03/15 10:50:57;;;;;;;36.05;29.75;;;8.90;99.90;;;;;;4994455;28;20504;-78
2022/03/15 10:53:28;;;;;;;33.42;28.55;;;9.00;99.90;;;;;;4997593;28;20045;-80
2022/03/15 10:56:21;;;;;;;35.22;27.95;;;9.10;99.90;;;;;;4997717;28;20046;-78
2022/03/15 10:58:54;;;;;;;34.28;28.63;;;9.20;99.90;;;;;;4992495;28;20137;-78
2022/03/15 11:01:24;;;;;;;31.40;25.23;;;9.30;99.90;;;;;;4988417;28;20385;-79
2022/03/15 11:03:57;;;;;;;;;;;9.40;99.90;;;;;;5002118;28;20046;-79
2022/03/15 11:06:37;;;;;;;30.67;25.20;;;9.50;99.90;;;;;;4987483;28;19937;-79
2022/03/15 11:09:16;;;;;;;33.38;26.73;;;9.60;99.90;;;;;;4980690;28;20053;-78
2022/03/15 11:11:42;;;;;;;30.10;24.23;;;9.80;99.90;;;;;;4999360;28;20045;-79
2022/03/15 11:14:10;;;;;;;32.50;25.83;;;9.80;99.90;;;;;;4997399;28;20050;-79
2022/03/15 11:16:37;;;;;;;32.88;26.85;;;9.90;99.90;;;;;;4991634;28;20046;-79
2022/03/15 11:19:05;;;;;;;28.50;23.65;;;9.90;99.90;;;;;;4968348;28;20052;-79
2022/03/15 11:21:34;;;;;;;34.17;25.00;;;9.90;99.90;;;;;;4970219;28;20038;-79
2022/03/15 11:24:02;;;;;;;33.28;24.73;;;9.90;99.90;;;;;;4991436;28;20048;-78
2022/03/15 11:26:33;;;;;;;31.33;24.65;;;10.00;99.90;;;;;;4963636;28;20049;-78
2022/03/15 11:29:02;;;;;;;29.83;24.73;;;10.00;99.90;;;;;;4975034;28;20049;-76
2022/03/15 11:31:30;;;;;;;33.55;24.95;;;10.00;99.90;;;;;;4992165;28;20054;-79
2022/03/15 11:33:58;;;;;;;28.70;22.40;;;10.00;99.90;;;;;;4989377;28;20440;-77
2022/03/15 11:36:25;;;;;;;30.67;22.65;;;10.10;99.90;;;;;;4984765;28;20075;-77
2022/03/15 11:38:52;;;;;;;27.08;21.90;;;10.10;99.90;;;;;;4978928;28;20042;-78
2022/03/15 11:41:21;;;;;;;31.55;22.38;;;10.10;99.90;;;;;;4953713;28;20048;-79
2022/03/15 11:44:00;;;;;;;27.33;20.67;;;10.20;99.90;;;;;;4961815;28;20122;-79
2022/03/15 11:47:03;;;;;;;27.52;21.38;;;10.20;99.90;;;;;;4967233;28;20073;-79
2022/03/15 11:49:43;;;;;;;24.27;19.38;;;10.30;99.90;;;;;;4914562;28;20151;-79
2022/03/15 11:52:47;;;;;;;24.42;18.42;;;10.30;99.90;;;;;;4982768;28;20042;-76
2022/03/15 11:55:21;;;;;;;23.77;18.15;;;10.40;99.90;;;;;;4994256;28;20112;-78
2022/03/15 11:58:03;;;;;;;24.65;18.98;;;10.50;99.90;;;;;;4986911;28;20512;-78
2022/03/15 12:00:45;;;;;;;21.80;18.17;;;10.50;99.90;;;;;;4974864;28;20037;-78
2022/03/15 12:03:15;;;;;;;22.45;17.08;;;10.60;99.90;;;;;;4990137;28;20641;-79
2022/03/15 12:05:47;;;;;;;20.73;16.05;;;10.60;99.90;;;;;;4984246;28;20046;-79
2022/03/15 12:08:20;;;;;;;22.00;16.20;;;10.60;99.90;;;;;;4986772;28;20593;-79
2022/03/15 12:10:52;;;;;;;23.38;16.05;;;10.60;99.90;;;;;;4979018;28;20046;-79
2022/03/15 12:13:20;;;;;;;24.90;15.88;;;10.60;99.90;;;;;;4986217;28;20630;-79
2022/03/15 12:15:48;;;;;;;20.27;15.27;;;10.70;99.90;;;;;;4988409;28;20050;-80
2022/03/15 12:21:02;;;;;;;21.75;14.60;;;10.70;99.90;;;;;;4991792;28;20046;-80
2022/03/15 12:23:37;;;;;;;20.75;13.23;;;10.70;99.90;;;;;;4988207;28;20050;-80
2022/03/15 12:26:03;;;;;;;20.27;14.18;;;10.80;99.90;;;;;;4975547;28;20053;-80
2022/03/15 12:28:31;;;;;;;20.35;13.75;;;10.70;99.90;;;;;;4959438;28;20041;-80
2022/03/15 12:31:08;;;;;;;18.00;12.88;;;10.80;99.90;;;;;;4967170;28;20068;-80
2022/03/15 12:33:35;;;;;;;19.83;14.63;;;10.80;99.90;;;;;;4986982;28;20062;-79
2022/03/15 12:36:11;;;;;;;19.33;12.55;;;10.80;99.90;;;;;;4975735;28;20049;-81
2022/03/15 12:38:41;;;;;;;16.20;11.93;;;10.80;99.90;;;;;;4984272;28;20106;-80
2022/03/15 12:41:07;;;;;;;21.77;12.48;;;10.90;99.90;;;;;;4985707;28;20057;-80